Battlement Mesa, Colorado
Current Conditions -  °F | °C
As of 4:53 AM on Monday 22 Dec 2014 (Local Time) from KRIL Reporting Station
Overcast Overcast  
Wind Chill: 35°   Ceiling: 8000
Heat Index: 35°   Visibility: 10mi
Dew Point: 31°   Wind: 0mph
Humidity: 85%   Direction: NA
Pressure: 29.88"   Gusts: NA
Location:  39.44°N, 108.03°W
Report Text: KRIL 221153Z AUTO 00000KT 10SM FEW055 OVC080 02/M01 A2988 RMK AO2 RAB03E13 SLP119 P0000 60000 70022 T00171006 10028 20011 50006
Loading
Personal Weather Stations






























Interactive Weather Map New forecast layout! Learn more

10-Day Weather Forecast

Advertisements
Track Severe Weather on mobile